createdAt,value
2022-08-17T00:02:27.256Z,99.90
2022-08-17T00:04:58.321Z,99.90
2022-08-17T00:07:29.281Z,99.90
2022-08-17T00:10:00.287Z,99.90
2022-08-17T00:12:42.681Z,99.90
2022-08-17T00:15:03.815Z,99.90
2022-08-17T00:17:35.054Z,99.90
2022-08-17T00:20:07.004Z,99.90
2022-08-17T00:22:38.032Z,99.90
2022-08-17T00:25:11.771Z,99.90
2022-08-17T00:27:43.493Z,99.90
2022-08-17T00:30:15.729Z,99.90
2022-08-17T00:33:14.307Z,99.90
2022-08-17T00:35:24.781Z,99.90
2022-08-17T00:37:56.707Z,99.90
2022-08-17T00:40:27.797Z,99.90
2022-08-17T00:42:59.964Z,99.90
2022-08-17T00:45:31.160Z,99.90
2022-08-17T00:48:02.164Z,99.90
2022-08-17T00:50:33.368Z,99.90
2022-08-17T00:53:06.133Z,99.90
2022-08-17T00:55:37.570Z,99.90
2022-08-17T00:58:09.108Z,99.90
2022-08-17T01:00:42.599Z,99.90
2022-08-17T01:03:16.559Z,99.90
2022-08-17T01:05:48.783Z,99.90
2022-08-17T01:08:22.177Z,99.90
2022-08-17T01:10:59.779Z,99.90
2022-08-17T01:13:29.902Z,99.90
2022-08-17T01:16:03.399Z,99.90
2022-08-17T01:18:34.853Z,99.90
2022-08-17T01:21:08.009Z,99.90
2022-08-17T01:23:39.654Z,99.90
2022-08-17T01:26:10.560Z,99.90
2022-08-17T01:28:53.741Z,99.90
2022-08-17T01:31:15.403Z,99.90
2022-08-17T01:33:46.163Z,99.90
2022-08-17T01:36:17.411Z,99.90
2022-08-17T01:38:48.432Z,99.90
2022-08-17T01:41:19.892Z,99.90
2022-08-17T01:43:53.040Z,99.90
2022-08-17T01:46:26.443Z,99.90
2022-08-17T01:48:59.105Z,99.90
2022-08-17T01:51:34.212Z,99.90
2022-08-17T01:54:07.575Z,99.90
2022-08-17T01:56:40.826Z,99.90
2022-08-17T01:59:11.869Z,99.90
2022-08-17T02:01:43.025Z,99.90
2022-08-17T02:04:14.347Z,99.90
2022-08-17T02:06:54.181Z,99.90
2022-08-17T02:09:18.168Z,99.90
2022-08-17T02:11:49.201Z,99.90
2022-08-17T02:14:20.941Z,99.90
2022-08-17T02:16:51.942Z,99.90
2022-08-17T02:19:23.575Z,99.90
2022-08-17T02:21:56.424Z,99.90
2022-08-17T02:25:00.522Z,99.90
2022-08-17T02:27:02.218Z,99.90
2022-08-17T02:29:33.772Z,99.90
2022-08-17T02:32:06.098Z,99.90
2022-08-17T02:34:37.097Z,99.90
2022-08-17T02:37:08.385Z,99.90
2022-08-17T02:39:40.273Z,99.90
2022-08-17T02:42:11.401Z,99.90
2022-08-17T02:44:43.148Z,99.90
2022-08-17T02:47:14.702Z,99.90
2022-08-17T02:49:54.180Z,99.90
2022-08-17T02:52:17.924Z,99.90
2022-08-17T02:54:50.614Z,99.90
2022-08-17T02:57:21.444Z,99.90
2022-08-17T02:59:52.517Z,99.90
2022-08-17T03:02:23.816Z,99.90
2022-08-17T03:04:55.415Z,99.90
2022-08-17T03:07:26.309Z,99.90
2022-08-17T03:09:57.031Z,99.90
2022-08-17T03:12:29.008Z,99.90
2022-08-17T03:15:00.353Z,99.90
2022-08-17T03:17:31.507Z,99.90
2022-08-17T03:20:02.506Z,99.90
2022-08-17T03:22:36.828Z,99.90
2022-08-17T03:25:10.702Z,99.90
2022-08-17T03:27:42.064Z,99.90
2022-08-17T03:30:14.770Z,99.90
2022-08-17T03:32:49.374Z,99.90
2022-08-17T03:35:23.203Z,99.90
2022-08-17T03:38:00.100Z,99.90
2022-08-17T03:40:34.779Z,99.90
2022-08-17T03:43:00.253Z,99.90
2022-08-17T03:45:32.618Z,99.90
2022-08-17T03:48:06.016Z,99.90
2022-08-17T03:50:38.421Z,99.90
2022-08-17T03:53:13.549Z,99.90
2022-08-17T03:55:46.104Z,99.90
2022-08-17T03:58:17.369Z,99.90
2022-08-17T04:00:48.087Z,99.90
2022-08-17T04:03:19.545Z,99.90
2022-08-17T04:05:50.497Z,99.90
2022-08-17T04:08:31.043Z,99.90
2022-08-17T04:11:03.010Z,99.90
2022-08-17T04:13:34.149Z,99.90
2022-08-17T04:16:05.171Z,99.90
2022-08-17T04:18:36.115Z,99.90
2022-08-17T04:21:07.179Z,99.90
2022-08-17T04:23:39.171Z,99.90
2022-08-17T04:26:10.299Z,99.90
2022-08-17T04:28:43.266Z,99.90
2022-08-17T04:31:15.983Z,99.90
2022-08-17T04:33:47.339Z,99.90
2022-08-17T04:36:20.639Z,99.90
2022-08-17T04:38:51.852Z,99.90
2022-08-17T04:41:24.413Z,99.90
2022-08-17T04:43:57.737Z,99.90
2022-08-17T04:46:32.640Z,99.90
2022-08-17T04:49:05.954Z,99.90
2022-08-17T04:51:39.271Z,99.90
2022-08-17T04:54:14.320Z,99.90
2022-08-17T04:56:46.014Z,99.90
2022-08-17T04:59:19.366Z,99.90
2022-08-17T05:01:52.612Z,99.90
2022-08-17T05:04:34.442Z,99.90
2022-08-17T05:06:58.277Z,99.90
2022-08-17T05:09:29.724Z,99.90
2022-08-17T05:12:03.558Z,99.90
2022-08-17T05:14:34.675Z,99.90
2022-08-17T05:17:09.602Z,99.90
2022-08-17T05:19:39.254Z,99.90
2022-08-17T05:22:10.283Z,99.90
2022-08-17T05:24:43.515Z,99.90
2022-08-17T05:27:18.691Z,99.90
2022-08-17T05:29:46.081Z,99.50
2022-08-17T05:32:38.034Z,99.30
2022-08-17T05:34:51.196Z,99.70
2022-08-17T05:37:22.646Z,98.80
2022-08-17T05:39:53.719Z,98.40
2022-08-17T05:42:25.436Z,97.50
2022-08-17T05:45:00.691Z,99.20
2022-08-17T05:47:32.841Z,97.60
2022-08-17T05:50:09.483Z,97.30
2022-08-17T05:52:38.244Z,98.60
2022-08-17T05:55:10.285Z,99.30
2022-08-17T05:57:53.012Z,99.10
2022-08-17T06:00:20.325Z,97.20
2022-08-17T06:02:50.668Z,97.20
2022-08-17T06:05:24.066Z,99.90
2022-08-17T06:07:57.340Z,99.90
2022-08-17T06:10:31.073Z,99.80
2022-08-17T06:13:03.137Z,97.30
2022-08-17T06:15:36.737Z,97.20
2022-08-17T06:18:10.328Z,97.90
2022-08-17T06:20:43.626Z,96.10
2022-08-17T06:23:17.042Z,97.30
2022-08-17T06:25:50.450Z,96.70
2022-08-17T06:28:24.864Z,98.30
2022-08-17T06:31:00.616Z,98.80
2022-08-17T06:33:33.560Z,96.70
2022-08-17T06:36:09.650Z,95.80
2022-08-17T06:38:41.562Z,97.90
2022-08-17T06:41:14.755Z,98.90
2022-08-17T06:43:48.042Z,96.80
2022-08-17T06:46:21.049Z,99.90
2022-08-17T06:48:55.274Z,99.00
2022-08-17T06:51:47.846Z,98.40
2022-08-17T06:54:21.201Z,97.00
2022-08-17T06:56:55.491Z,96.90
2022-08-17T06:59:30.452Z,97.50
2022-08-17T07:02:04.817Z,96.70
2022-08-17T07:04:38.185Z,96.90
2022-08-17T07:07:12.718Z,96.90
2022-08-17T07:09:43.777Z,97.40
2022-08-17T07:12:17.419Z,98.30
2022-08-17T07:14:52.224Z,98.80
2022-08-17T07:17:46.460Z,99.90
2022-08-17T07:20:00.780Z,99.90
2022-08-17T07:22:50.644Z,99.90
2022-08-17T07:25:12.279Z,99.90
2022-08-17T07:27:49.530Z,99.90
2022-08-17T07:30:21.449Z,99.90
2022-08-17T07:32:55.012Z,99.90
2022-08-17T07:35:37.602Z,99.90
2022-08-17T07:38:04.642Z,99.90
2022-08-17T07:40:37.713Z,99.90
2022-08-17T07:43:21.655Z,99.90
2022-08-17T07:45:47.127Z,99.90
2022-08-17T07:48:21.911Z,99.90
2022-08-17T07:50:54.457Z,99.90
2022-08-17T07:53:28.366Z,99.80
2022-08-17T07:55:59.592Z,99.40
2022-08-17T07:58:31.213Z,99.60
2022-08-17T08:01:05.964Z,99.10
2022-08-17T08:03:39.827Z,99.30
2022-08-17T08:06:14.679Z,99.10
2022-08-17T08:08:48.415Z,99.10
2022-08-17T08:11:22.091Z,99.20
2022-08-17T08:13:52.952Z,99.20
2022-08-17T08:16:26.626Z,99.00
2022-08-17T08:19:00.227Z,99.30
2022-08-17T08:21:32.412Z,98.70
2022-08-17T08:24:06.003Z,98.90
2022-08-17T08:26:40.215Z,98.80
2022-08-17T08:29:12.381Z,98.30
2022-08-17T08:31:45.556Z,97.60
2022-08-17T08:34:58.958Z,97.20
2022-08-17T08:37:12.734Z,98.20
2022-08-17T08:39:26.085Z,97.30
2022-08-17T08:41:58.137Z,97.40
2022-08-17T08:44:59.878Z,98.10
2022-08-17T08:47:04.215Z,97.00
2022-08-17T08:50:02.810Z,97.00
2022-08-17T08:52:12.229Z,97.00
2022-08-17T08:54:45.607Z,96.20
2022-08-17T08:57:32.923Z,96.40
2022-08-17T08:59:58.310Z,96.40
2022-08-17T09:02:25.925Z,97.10
2022-08-17T09:05:13.973Z,96.60
2022-08-17T09:07:32.310Z,96.60
2022-08-17T09:10:12.708Z,96.40
2022-08-17T09:12:46.081Z,96.20
2022-08-17T09:15:22.354Z,96.40
2022-08-17T09:18:21.331Z,96.80
2022-08-17T09:20:37.496Z,97.40
2022-08-17T09:23:11.116Z,97.80
2022-08-17T09:25:46.367Z,96.90
2022-08-17T09:28:23.771Z,96.70
2022-08-17T09:30:58.535Z,97.00
2022-08-17T09:33:33.204Z,96.90
2022-08-17T09:36:04.169Z,97.00
2022-08-17T09:38:35.895Z,97.10
2022-08-17T09:41:07.662Z,96.60
2022-08-17T09:43:41.067Z,96.90
2022-08-17T09:46:14.402Z,97.00
2022-08-17T09:48:51.585Z,96.60
2022-08-17T09:54:38.507Z,96.90
2022-08-17T09:59:38.994Z,97.80
2022-08-17T10:02:24.107Z,97.00
2022-08-17T10:05:00.320Z,96.90
2022-08-17T10:07:38.069Z,97.00
2022-08-17T10:10:14.313Z,96.90
2022-08-17T10:12:47.062Z,97.20
2022-08-17T10:15:20.600Z,97.30
2022-08-17T10:17:55.452Z,97.10
2022-08-17T10:20:29.277Z,97.00
2022-08-17T10:23:06.708Z,97.00
2022-08-17T10:25:54.678Z,96.80
2022-08-17T10:28:25.854Z,96.10
2022-08-17T10:31:30.881Z,96.80
2022-08-17T10:33:36.703Z,96.10
2022-08-17T10:36:10.928Z,96.10
2022-08-17T10:38:45.863Z,96.80
2022-08-17T10:41:21.477Z,96.30
2022-08-17T10:44:36.748Z,96.60
2022-08-17T10:46:30.987Z,97.00
2022-08-17T10:49:09.096Z,97.20
2022-08-17T10:52:19.284Z,97.20
2022-08-17T10:54:33.126Z,97.50
2022-08-17T10:57:03.817Z,97.30
2022-08-17T10:59:37.276Z,97.40
2022-08-17T11:02:09.062Z,97.70
2022-08-17T11:04:42.715Z,97.70
2022-08-17T11:07:15.909Z,97.60
2022-08-17T11:09:49.267Z,97.50
2022-08-17T11:12:22.605Z,97.50
2022-08-17T11:14:55.802Z,97.70
2022-08-17T11:17:30.914Z,97.60
2022-08-17T11:20:05.411Z,97.70
2022-08-17T11:22:38.789Z,97.60
2022-08-17T11:25:14.453Z,97.90
2022-08-17T11:27:48.653Z,97.90
2022-08-17T11:30:23.234Z,98.00
2022-08-17T11:32:57.913Z,98.00
2022-08-17T11:35:31.485Z,98.00
2022-08-17T11:38:08.677Z,98.10
2022-08-17T11:40:42.296Z,98.20
2022-08-17T11:43:17.224Z,98.60
2022-08-17T11:45:50.122Z,98.80
2022-08-17T11:48:28.274Z,98.70
2022-08-17T11:50:59.023Z,99.00
2022-08-17T11:53:32.345Z,98.70
2022-08-17T11:56:05.056Z,98.50
2022-08-17T11:58:40.308Z,98.60
2022-08-17T12:01:12.379Z,98.60
2022-08-17T12:03:55.262Z,98.80
2022-08-17T12:06:22.215Z,98.70
2022-08-17T12:08:56.860Z,98.60
2022-08-17T12:11:55.158Z,98.50
2022-08-17T12:14:03.556Z,98.50
2022-08-17T12:16:35.448Z,98.40
2022-08-17T12:19:07.359Z,98.70
2022-08-17T12:21:41.685Z,98.40
2022-08-17T12:24:15.256Z,98.20
2022-08-17T12:26:47.356Z,98.30
2022-08-17T12:29:35.833Z,98.30
2022-08-17T12:31:55.578Z,98.40
2022-08-17T12:34:28.908Z,98.40
2022-08-17T12:37:02.192Z,98.50
2022-08-17T12:39:36.387Z,98.50
2022-08-17T12:42:07.765Z,98.60
2022-08-17T12:44:42.981Z,98.60
2022-08-17T12:47:23.773Z,98.70
2022-08-17T12:49:59.992Z,98.70
2022-08-17T12:52:34.184Z,98.80
2022-08-17T12:55:11.588Z,99.00
2022-08-17T13:00:47.709Z,99.10
2022-08-17T13:03:22.610Z,99.20
2022-08-17T13:05:54.210Z,99.30
2022-08-17T13:09:00.435Z,99.40
2022-08-17T13:11:46.900Z,99.50
2022-08-17T13:14:19.239Z,99.60
2022-08-17T13:16:53.888Z,99.60
2022-08-17T13:19:39.979Z,99.80
2022-08-17T13:22:04.261Z,99.80
2022-08-17T13:24:41.575Z,99.90
2022-08-17T13:27:17.027Z,99.90
2022-08-17T13:29:52.964Z,99.90
2022-08-17T13:32:29.467Z,99.90
2022-08-17T13:35:15.572Z,99.90
2022-08-17T13:37:44.321Z,99.90
2022-08-17T13:40:15.725Z,99.90
2022-08-17T13:42:53.118Z,99.90
2022-08-17T13:45:36.269Z,99.90
2022-08-17T13:48:01.240Z,99.90
2022-08-17T13:50:35.865Z,99.90
2022-08-17T13:53:09.155Z,99.90
2022-08-17T13:55:45.121Z,99.90
2022-08-17T13:58:20.523Z,99.90
2022-08-17T14:00:58.643Z,99.90
2022-08-17T14:03:35.430Z,99.90
2022-08-17T14:06:07.251Z,99.90
2022-08-17T14:08:42.202Z,99.90
2022-08-17T14:11:14.270Z,99.90
2022-08-17T14:13:47.323Z,99.90
2022-08-17T14:16:22.103Z,99.90
2022-08-17T14:18:57.018Z,99.90
2022-08-17T14:21:25.115Z,99.90
2022-08-17T14:23:55.900Z,99.90
2022-08-17T14:26:33.107Z,99.90
2022-08-17T14:32:04.358Z,99.90
2022-08-17T14:34:36.626Z,99.90
2022-08-17T14:37:08.028Z,99.90
2022-08-17T14:39:39.192Z,99.90
2022-08-17T14:42:11.724Z,99.90
2022-08-17T14:44:43.087Z,99.90
2022-08-17T14:47:19.248Z,99.90
2022-08-17T14:49:54.000Z,99.90
2022-08-17T14:52:32.077Z,99.90
2022-08-17T14:55:07.248Z,99.90
2022-08-17T14:57:40.805Z,99.90
2022-08-17T15:00:12.875Z,99.90
2022-08-17T15:02:49.442Z,99.90
2022-08-17T15:05:19.674Z,99.90
2022-08-17T15:07:51.572Z,99.90
2022-08-17T15:10:25.897Z,99.90
2022-08-17T15:12:56.064Z,99.90
2022-08-17T15:15:28.447Z,99.90
2022-08-17T15:18:01.419Z,99.90
2022-08-17T15:20:34.012Z,99.90
2022-08-17T15:23:05.263Z,99.90
2022-08-17T15:25:36.641Z,99.90
2022-08-17T15:28:08.663Z,99.90
2022-08-17T15:30:41.533Z,99.90
2022-08-17T15:33:19.951Z,99.90
2022-08-17T15:35:54.668Z,99.90
2022-08-17T15:38:31.286Z,99.90
2022-08-17T15:41:01.187Z,99.90
2022-08-17T15:43:33.858Z,99.90
2022-08-17T15:46:07.560Z,99.90
2022-08-17T15:48:40.244Z,99.90
2022-08-17T15:51:17.674Z,99.90
2022-08-17T15:53:51.027Z,99.90
2022-08-17T15:56:29.006Z,99.90
2022-08-17T15:58:59.888Z,99.90
2022-08-17T16:02:33.657Z,99.90
2022-08-17T16:04:30.427Z,99.90
2022-08-17T16:06:40.778Z,99.90
2022-08-17T16:09:18.724Z,99.90
2022-08-17T16:11:52.038Z,99.90
2022-08-17T16:14:22.513Z,99.90
2022-08-17T16:16:54.874Z,99.90
2022-08-17T16:19:26.021Z,99.90
2022-08-17T16:21:56.876Z,99.90
2022-08-17T16:24:27.808Z,99.90
2022-08-17T16:26:58.799Z,99.90
2022-08-17T16:29:30.393Z,99.90
2022-08-17T16:32:02.773Z,99.90
2022-08-17T16:34:35.032Z,99.90
2022-08-17T16:37:05.905Z,99.90
2022-08-17T16:39:42.170Z,99.90
2022-08-17T16:42:15.941Z,99.90
2022-08-17T16:44:47.213Z,99.90
2022-08-17T16:47:19.325Z,99.90
2022-08-17T16:49:59.639Z,99.90
2022-08-17T16:52:32.916Z,99.90
2022-08-17T16:55:13.500Z,99.90
2022-08-17T16:57:50.689Z,99.90
2022-08-17T17:00:19.239Z,99.90
2022-08-17T17:02:51.539Z,99.90
2022-08-17T17:05:26.476Z,99.90
2022-08-17T17:07:59.756Z,99.90
2022-08-17T17:10:34.260Z,99.90
2022-08-17T17:13:07.427Z,99.90
2022-08-17T17:15:42.325Z,99.90
2022-08-17T17:18:16.646Z,99.90
2022-08-17T17:21:05.874Z,99.90
2022-08-17T17:23:33.036Z,99.90
2022-08-17T17:26:06.358Z,99.90
2022-08-17T17:28:40.339Z,99.90
2022-08-17T17:31:13.726Z,99.90
2022-08-17T17:33:48.492Z,99.90
2022-08-17T17:36:21.740Z,99.90
2022-08-17T17:38:55.362Z,99.90
2022-08-17T17:41:37.963Z,99.90
2022-08-17T17:44:05.148Z,99.90
2022-08-17T17:46:39.939Z,99.90
2022-08-17T17:49:12.550Z,99.90
2022-08-17T17:51:55.003Z,99.90
2022-08-17T17:54:19.501Z,99.90
2022-08-17T17:56:52.811Z,99.90
2022-08-17T17:59:24.689Z,99.90
2022-08-17T18:01:58.684Z,99.90
2022-08-17T18:04:32.213Z,99.90
2022-08-17T18:07:05.810Z,99.90
2022-08-17T18:09:40.547Z,99.90
2022-08-17T18:12:14.123Z,99.90
2022-08-17T18:14:47.820Z,99.90
2022-08-17T18:17:19.690Z,99.90
2022-08-17T18:19:54.598Z,99.90
2022-08-17T18:22:26.631Z,99.90
2022-08-17T18:24:58.843Z,99.90
2022-08-17T18:27:30.512Z,99.90
2022-08-17T18:30:08.761Z,99.90
2022-08-17T18:32:40.876Z,99.90
2022-08-17T18:35:11.025Z,99.90
2022-08-17T18:37:41.114Z,99.90
2022-08-17T18:40:20.238Z,99.90
2022-08-17T18:42:52.412Z,99.90
2022-08-17T18:45:26.120Z,99.90
2022-08-17T18:47:58.561Z,99.90
2022-08-17T18:50:31.887Z,99.90
2022-08-17T18:53:07.282Z,99.90
2022-08-17T18:55:37.965Z,99.90
2022-08-17T18:58:11.978Z,99.90
2022-08-17T19:00:45.491Z,99.90
2022-08-17T19:03:20.075Z,99.90
2022-08-17T19:05:53.701Z,99.90
2022-08-17T19:08:23.870Z,99.90
2022-08-17T19:10:57.330Z,99.90
2022-08-17T19:13:30.647Z,99.90
2022-08-17T19:16:14.342Z,99.90
2022-08-17T19:18:38.968Z,99.90
2022-08-17T19:21:12.357Z,99.90
2022-08-17T19:23:53.892Z,99.90
2022-08-17T19:26:54.572Z,99.90
2022-08-17T19:28:56.529Z,99.90
2022-08-17T19:31:30.093Z,99.90
2022-08-17T19:34:02.944Z,99.90
2022-08-17T19:36:36.702Z,99.90
2022-08-17T19:39:09.956Z,99.90
2022-08-17T19:41:46.773Z,99.90
2022-08-17T19:44:20.424Z,99.90
2022-08-17T19:46:56.187Z,99.90
2022-08-17T19:49:33.461Z,99.90
2022-08-17T19:52:01.702Z,99.90
2022-08-17T19:54:33.618Z,99.90
2022-08-17T19:57:08.043Z,99.90
2022-08-17T19:59:39.722Z,99.90
2022-08-17T20:02:12.997Z,99.90
2022-08-17T20:04:46.177Z,99.90
2022-08-17T20:07:19.729Z,99.90
2022-08-17T20:09:53.536Z,99.90
2022-08-17T20:12:28.076Z,99.90
2022-08-17T20:15:01.373Z,99.90
2022-08-17T20:17:34.683Z,99.90
2022-08-17T20:20:07.761Z,99.90
2022-08-17T20:22:52.192Z,99.90
2022-08-17T20:25:17.294Z,99.90
2022-08-17T20:27:51.977Z,99.90
2022-08-17T20:30:27.800Z,99.90
2022-08-17T20:33:01.380Z,99.90
2022-08-17T20:35:35.185Z,99.90
2022-08-17T20:38:08.396Z,99.90
2022-08-17T20:40:41.676Z,99.90
2022-08-17T20:43:15.071Z,99.90
2022-08-17T20:45:48.666Z,99.90
2022-08-17T20:48:37.569Z,99.90
2022-08-17T20:50:56.818Z,99.90
2022-08-17T20:53:30.200Z,99.90
2022-08-17T20:56:01.035Z,99.90
2022-08-17T20:58:36.116Z,99.90
2022-08-17T21:01:10.824Z,99.90
2022-08-17T21:03:50.133Z,99.90
2022-08-17T21:06:17.957Z,99.90
2022-08-17T21:08:52.703Z,99.90
2022-08-17T21:12:01.495Z,99.90
2022-08-17T21:14:03.027Z,99.90
2022-08-17T21:16:36.339Z,99.90
2022-08-17T21:19:09.908Z,99.90
2022-08-17T21:21:43.694Z,99.90
2022-08-17T21:24:19.357Z,99.90
2022-08-17T21:26:52.763Z,99.90
2022-08-17T21:29:31.447Z,99.90
2022-08-17T21:32:00.892Z,99.90
2022-08-17T21:34:35.454Z,99.90
2022-08-17T21:37:09.166Z,99.90
2022-08-17T21:39:43.068Z,99.90
2022-08-17T21:42:15.997Z,99.90
2022-08-17T21:44:49.507Z,99.90
2022-08-17T21:47:21.206Z,99.90
2022-08-17T21:49:53.212Z,99.90
2022-08-17T21:52:26.717Z,99.90
2022-08-17T21:55:00.222Z,99.90
2022-08-17T21:57:32.539Z,99.90
2022-08-17T22:00:06.282Z,99.90
2022-08-17T22:02:39.884Z,99.90
2022-08-17T22:05:13.292Z,99.90
2022-08-17T22:07:47.238Z,99.90
2022-08-17T22:10:22.330Z,99.90
2022-08-17T22:12:55.569Z,99.90
2022-08-17T22:15:26.770Z,99.90
2022-08-17T22:17:59.145Z,99.90
2022-08-17T22:20:30.163Z,99.90
2022-08-17T22:23:03.273Z,99.90
2022-08-17T22:25:37.531Z,99.90
2022-08-17T22:28:13.854Z,99.90
2022-08-17T22:30:47.148Z,99.90
2022-08-17T22:33:20.471Z,99.90
2022-08-17T22:35:51.868Z,99.90
2022-08-17T22:38:22.436Z,99.90
2022-08-17T22:40:56.135Z,99.90
2022-08-17T22:43:30.057Z,99.90
2022-08-17T22:46:03.254Z,99.90
2022-08-17T22:48:34.903Z,99.90
2022-08-17T22:51:12.161Z,99.90
2022-08-17T22:53:43.430Z,99.90
2022-08-17T22:56:19.229Z,99.90
2022-08-17T22:58:58.988Z,99.90
2022-08-17T23:01:29.896Z,99.90
2022-08-17T23:04:03.418Z,99.90
2022-08-17T23:06:36.754Z,99.90
2022-08-17T23:09:09.445Z,99.90
2022-08-17T23:11:48.642Z,99.90
2022-08-17T23:14:16.875Z,99.90
2022-08-17T23:16:47.957Z,99.90
2022-08-17T23:19:21.805Z,99.90
2022-08-17T23:21:54.200Z,99.90
2022-08-17T23:24:27.762Z,99.90
2022-08-17T23:27:00.441Z,99.90
2022-08-17T23:29:31.796Z,99.90
2022-08-17T23:32:04.837Z,99.90
2022-08-17T23:34:36.055Z,99.90
2022-08-17T23:37:07.156Z,99.90
2022-08-17T23:39:39.035Z,99.90
2022-08-17T23:42:12.309Z,99.90
2022-08-17T23:44:45.184Z,99.90
2022-08-17T23:47:16.235Z,99.90
2022-08-17T23:49:47.200Z,99.90
2022-08-17T23:52:18.704Z,99.90
2022-08-17T23:54:51.218Z,99.90
2022-08-17T23:57:33.886Z,99.90
2022-08-17T23:59:56.311Z,99.90
